vicenzatoday.it alexa rank chart, vicenzatoday.it alexa rank daily changes

vicenzatoday.it alexa rank chart, vicenzatoday.it alexa rank daily changes

vicenzatoday.it
Actual rank:
97 071

RANK HISTORY

Date Rank Diff
2018/05/20 97 071 -75 434
2018/05/19 172 505 -74 804
2018/05/18 247 309 +105 227
2018/05/17 142 082 -375 511
2018/05/16 517 593 +334 261
2018/05/15 183 332 -84 548
2018/05/14 267 880 +176 352
2018/05/13 91 528 -26 735
2018/05/12 118 263 -59 330
2018/05/11 177 593 +97 244
2018/05/10 80 349 -155 814
2018/05/09 236 163 +16 986
2018/05/08 219 177 +38 278
2018/05/07 180 899 +77 371
2018/05/05 103 528 -66 042
2018/05/04 169 570 +283
2018/05/03 169 287 -42 504
2018/05/02 211 791 +101 741
2018/04/30 110 050 +20 737
2018/04/29 89 313 -323 571
2018/04/28 412 884 +226 424
2018/04/27 186 460 +2 100
2018/04/26 184 360 +83 131
2018/04/25 101 229 -47 372
2018/04/24 148 601 -37 859
2018/04/23 186 460 +87 524
2018/04/22 98 936 -35 808
2018/04/21 134 744 -87 144
2018/04/20 221 888 +130 393
2018/04/19 91 495 -123 708
2018/04/18 215 203 -18 269
2018/04/17 233 472 +8 289
2018/04/16 225 183 +58 849
2018/04/15 166 334 +53 185
2018/04/14 113 149 -4 486
2018/04/13 117 635 -79 636
2018/04/12 197 271 +18 712
2018/04/11 178 559 -787 852
2018/04/10 966 411 +810 954
2018/04/09 155 457 +40 815
2018/04/08 114 642 +2 384
2018/04/07 112 258 +32 778
2018/04/06 79 480 -419 929
2018/04/05 499 409 +396 911
2018/04/04 102 498 +804
2018/04/03 101 694 -23 720
2018/04/02 125 414 +11 366
2018/04/01 114 048 -428 461
2018/03/31 542 509 +248 680
2018/03/30 293 829 +170 587
2018/03/29 123 242 +7 250
2018/03/28 115 992 +8 153
2018/03/27 107 839 +38 920
2018/03/26 68 919 -269 891
2018/03/25 338 810 +170 749
2018/03/24 168 061 +26 533
2018/03/23 141 528 -16 455
2018/03/22 157 983 -45 572
2018/03/21 203 555

WIDGET FOR YOUR SITE

DOMAINS WITH THE NEAREST RANK

Domain Rank
femmefatalities.com 97 066
speedy.bg 97 067
dsvn.vn 97 068
thenorthface.com.au 97 069
porezna-uprava.hr 97 070
vicenzatoday.it 97 071
mediazotic.com 97 072
99meijutv.com 97 073
strandbergguitars.com 97 074
virtualnights.com 97 075
2008php.com 97 076

DOMAINS WITH THE NEAREST RANK BY TLD .it

Domain Rank
visura.it 94 826
coni.it 95 059
hse24.it 96 693
beps.it 96 752
loescher.it 97 063
vicenzatoday.it 97 071
uniud.it 97 252
calcioefinanza.it 97 253
caasa.it 97 359
myheritage.it 97 362
targatocn.it 97 363